createdAt,value
2022-11-18T00:01:31.398Z,10.37
2022-11-18T00:04:01.394Z,10.03
2022-11-18T00:06:31.141Z,8.93
2022-11-18T00:09:01.554Z,9.43
2022-11-18T00:11:47.895Z,10.03
2022-11-18T00:14:21.490Z,9.17
2022-11-18T00:16:52.318Z,9.47
2022-11-18T00:19:23.796Z,8.03
2022-11-18T00:21:52.412Z,8.47
2022-11-18T00:24:21.542Z,31.47
2022-11-18T00:26:50.270Z,17.60
2022-11-18T00:29:19.369Z,42.30
2022-11-18T00:31:47.966Z,34.67
2022-11-18T00:34:18.223Z,21.60
2022-11-18T00:36:48.621Z,69.90
2022-11-18T00:39:19.125Z,104.73
2022-11-18T00:42:05.128Z,25.63
2022-11-18T00:44:33.631Z,31.23
2022-11-18T00:47:02.033Z,14.67
2022-11-18T00:49:31.017Z,9.03
2022-11-18T00:52:01.373Z,8.10
2022-11-18T00:54:29.773Z,7.43
2022-11-18T00:56:58.135Z,8.33
2022-11-18T00:59:26.917Z,8.13
2022-11-18T01:01:55.352Z,7.73
2022-11-18T01:04:23.847Z,7.57
2022-11-18T01:06:52.349Z,7.90
2022-11-18T01:09:22.156Z,7.80
2022-11-18T01:12:07.181Z,7.87
2022-11-18T01:14:35.647Z,7.20
2022-11-18T01:17:04.189Z,7.03
2022-11-18T01:19:32.613Z,7.60
2022-11-18T01:22:03.529Z,6.53
2022-11-18T01:24:34.795Z,7.63
2022-11-18T01:27:03.384Z,7.80
2022-11-18T01:29:31.814Z,7.13
2022-11-18T01:34:51.630Z,6.97
2022-11-18T01:37:19.994Z,7.80
2022-11-18T01:39:49.757Z,7.83
2022-11-18T01:42:19.933Z,8.03
2022-11-18T01:45:23.092Z,7.60
2022-11-18T01:47:55.818Z,7.50
2022-11-18T01:50:25.971Z,7.97
2022-11-18T01:52:57.638Z,7.37
2022-11-18T01:55:30.911Z,6.57
2022-11-18T01:58:05.283Z,8.07
2022-11-18T02:00:33.734Z,7.60
2022-11-18T02:03:03.994Z,7.90
2022-11-18T02:05:35.044Z,8.47
2022-11-18T02:08:04.623Z,8.20
2022-11-18T02:10:34.576Z,8.60
2022-11-18T02:13:03.719Z,8.97
2022-11-18T02:15:47.886Z,8.77
2022-11-18T02:18:27.834Z,8.33
2022-11-18T02:21:04.037Z,8.83
2022-11-18T02:23:59.583Z,7.83
2022-11-18T02:26:56.251Z,8.93
2022-11-18T02:29:31.152Z,8.07
2022-11-18T02:32:02.461Z,8.63
2022-11-18T02:34:43.794Z,8.27
2022-11-18T02:37:19.594Z,7.57
2022-11-18T02:39:53.558Z,8.37
2022-11-18T02:42:24.268Z,8.30
2022-11-18T02:45:01.364Z,8.67
2022-11-18T02:47:33.170Z,7.77
2022-11-18T02:50:07.160Z,8.23
2022-11-18T02:52:38.894Z,7.97
2022-11-18T02:55:11.129Z,8.60
2022-11-18T02:57:44.882Z,8.17
2022-11-18T03:00:15.931Z,7.47
2022-11-18T03:02:46.106Z,8.10
2022-11-18T03:05:19.742Z,8.30
2022-11-18T03:07:56.028Z,7.90
2022-11-18T03:10:29.495Z,8.63
2022-11-18T03:13:07.104Z,8.00
2022-11-18T03:15:46.608Z,7.93
2022-11-18T03:18:21.863Z,7.90
2022-11-18T03:20:54.830Z,7.93
2022-11-18T03:23:30.418Z,8.53
2022-11-18T03:26:03.711Z,8.33
2022-11-18T03:28:38.240Z,8.60
2022-11-18T03:31:13.690Z,8.37
2022-11-18T03:33:46.374Z,8.67
2022-11-18T03:36:17.303Z,8.57
2022-11-18T03:38:49.667Z,9.80
2022-11-18T03:41:20.615Z,9.10
2022-11-18T03:43:53.136Z,8.80
2022-11-18T03:46:26.941Z,8.03
2022-11-18T03:48:57.960Z,8.17
2022-11-18T03:51:31.908Z,9.37
2022-11-18T03:54:08.131Z,9.80
2022-11-18T03:56:43.157Z,9.60
2022-11-18T03:59:18.009Z,9.50
2022-11-18T04:01:54.198Z,9.37
2022-11-18T04:04:23.345Z,10.93
2022-11-18T04:07:00.131Z,16.53
2022-11-18T04:09:33.954Z,20.30
2022-11-18T04:12:06.153Z,11.60
2022-11-18T04:14:37.948Z,16.10
2022-11-18T04:17:13.684Z,10.53
2022-11-18T04:19:42.762Z,10.37
2022-11-18T04:22:12.389Z,10.20
2022-11-18T04:24:40.869Z,10.17
2022-11-18T04:27:09.620Z,10.03
2022-11-18T04:29:38.377Z,10.97
2022-11-18T04:32:07.629Z,10.57
2022-11-18T04:34:37.561Z,10.13
2022-11-18T04:37:06.056Z,11.10
2022-11-18T04:39:34.924Z,11.17
2022-11-18T04:42:03.344Z,10.60
2022-11-18T04:44:33.727Z,10.60
2022-11-18T04:47:03.901Z,10.70
2022-11-18T04:49:32.713Z,11.43
2022-11-18T04:52:03.078Z,10.60
2022-11-18T04:54:31.478Z,11.17
2022-11-18T04:56:59.892Z,11.67
2022-11-18T04:59:30.004Z,11.43
2022-11-18T05:02:01.196Z,11.27
2022-11-18T05:04:31.790Z,12.90
2022-11-18T05:07:02.992Z,11.57
2022-11-18T05:09:32.221Z,11.37
2022-11-18T05:12:18.807Z,11.70
2022-11-18T05:14:50.451Z,11.43
2022-11-18T05:17:19.725Z,11.87
2022-11-18T05:19:48.110Z,12.23
2022-11-18T05:22:18.047Z,14.10
2022-11-18T05:24:46.452Z,12.40
2022-11-18T05:27:15.254Z,11.40
2022-11-18T05:29:55.293Z,10.90
2022-11-18T05:32:23.696Z,11.50
2022-11-18T05:34:52.056Z,11.70
2022-11-18T05:37:21.858Z,10.80
2022-11-18T05:39:50.305Z,10.40
2022-11-18T05:42:36.027Z,11.00
2022-11-18T05:45:05.343Z,9.83
2022-11-18T05:47:53.670Z,11.00
2022-11-18T05:50:22.069Z,10.93
2022-11-18T05:52:51.882Z,10.90
2022-11-18T05:55:22.227Z,11.33
2022-11-18T05:57:51.113Z,11.23
2022-11-18T06:00:20.330Z,10.93
2022-11-18T06:02:52.097Z,10.73
2022-11-18T06:05:22.155Z,11.23
2022-11-18T06:07:52.096Z,10.77
2022-11-18T06:10:24.201Z,11.47
2022-11-18T06:12:56.546Z,11.27
2022-11-18T06:15:27.940Z,10.83
2022-11-18T06:18:01.434Z,10.50
2022-11-18T06:20:30.497Z,10.97
2022-11-18T06:23:01.959Z,10.93
2022-11-18T06:25:30.995Z,11.47
2022-11-18T06:28:02.420Z,11.90
2022-11-18T06:30:30.827Z,11.67
2022-11-18T06:32:59.230Z,11.40
2022-11-18T06:35:27.701Z,11.80
2022-11-18T06:37:56.051Z,11.27
2022-11-18T06:40:29.336Z,11.53
2022-11-18T06:43:24.722Z,11.97
2022-11-18T06:46:09.394Z,11.93
2022-11-18T06:48:38.043Z,12.47
2022-11-18T06:51:07.072Z,12.87
2022-11-18T06:53:35.862Z,13.43
2022-11-18T06:56:08.062Z,15.47
2022-11-18T06:58:36.912Z,11.70
2022-11-18T07:01:12.100Z,12.70
2022-11-18T07:03:40.646Z,13.17
2022-11-18T07:06:09.880Z,13.27
2022-11-18T07:08:39.324Z,13.50
2022-11-18T07:11:11.766Z,12.77
2022-11-18T07:13:43.798Z,14.00
2022-11-18T07:16:14.605Z,12.47
2022-11-18T07:18:44.080Z,13.87
2022-11-18T07:21:14.812Z,13.57
2022-11-18T07:23:44.086Z,14.47
2022-11-18T07:26:14.518Z,14.00
2022-11-18T07:28:43.094Z,14.27
2022-11-18T07:31:13.488Z,13.50
2022-11-18T07:33:43.127Z,13.30
2022-11-18T07:36:13.602Z,14.50
2022-11-18T07:38:42.631Z,13.17
2022-11-18T07:41:14.481Z,13.67
2022-11-18T07:43:43.493Z,12.87
2022-11-18T07:46:14.363Z,12.83
2022-11-18T07:48:44.112Z,13.43
2022-11-18T07:51:13.305Z,13.23
2022-11-18T07:53:42.095Z,13.30
2022-11-18T07:56:11.418Z,13.13
2022-11-18T07:58:42.197Z,12.67
2022-11-18T08:01:12.174Z,13.33
2022-11-18T08:03:41.483Z,13.87
2022-11-18T08:06:11.065Z,13.67
2022-11-18T08:08:39.906Z,13.07
2022-11-18T08:11:10.091Z,14.07
2022-11-18T08:13:38.902Z,14.47
2022-11-18T08:16:15.862Z,13.77
2022-11-18T08:18:44.855Z,14.20
2022-11-18T08:21:13.553Z,14.07
2022-11-18T08:23:42.838Z,13.53
2022-11-18T08:26:13.546Z,14.13
2022-11-18T08:28:42.043Z,14.20
2022-11-18T08:31:13.546Z,13.53
2022-11-18T08:33:42.794Z,13.50
2022-11-18T08:36:14.349Z,13.87
2022-11-18T08:38:42.855Z,15.10
2022-11-18T08:41:13.975Z,15.83
2022-11-18T08:43:42.714Z,17.63
2022-11-18T08:46:12.943Z,14.93
2022-11-18T08:48:41.288Z,15.60
2022-11-18T08:51:12.172Z,15.37
2022-11-18T08:53:40.608Z,16.07
2022-11-18T08:56:14.582Z,16.37
2022-11-18T08:58:43.208Z,14.80
2022-11-18T09:01:13.676Z,15.03
2022-11-18T09:03:42.528Z,15.40
2022-11-18T09:06:13.289Z,16.67
2022-11-18T09:08:42.718Z,15.17
2022-11-18T09:11:12.606Z,17.50
2022-11-18T09:14:09.625Z,15.93
2022-11-18T09:16:33.063Z,15.53
2022-11-18T09:21:50.261Z,16.87
2022-11-18T09:24:18.968Z,16.23
2022-11-18T09:26:48.387Z,15.17
2022-11-18T09:29:16.817Z,14.90
2022-11-18T09:31:46.561Z,13.47
2022-11-18T09:34:14.962Z,13.57
2022-11-18T09:36:43.292Z,13.87
2022-11-18T09:39:11.723Z,13.13
2022-11-18T09:41:46.721Z,12.97
2022-11-18T09:44:28.847Z,13.10
2022-11-18T09:47:09.508Z,12.57
2022-11-18T09:49:41.073Z,12.90
2022-11-18T09:52:16.148Z,14.07
2022-11-18T09:54:44.911Z,13.00
2022-11-18T09:57:16.137Z,14.00
2022-11-18T09:59:45.462Z,14.33
2022-11-18T10:02:30.711Z,14.07
2022-11-18T10:05:03.443Z,13.93
2022-11-18T10:07:42.657Z,13.97
2022-11-18T10:10:19.215Z,12.57
2022-11-18T10:12:52.278Z,14.37
2022-11-18T10:15:28.418Z,13.60
2022-11-18T10:18:06.562Z,14.07
2022-11-18T10:20:44.720Z,13.33
2022-11-18T10:23:18.662Z,15.80
2022-11-18T10:25:47.206Z,14.17
2022-11-18T10:28:20.139Z,15.50
2022-11-18T10:30:48.561Z,14.90
2022-11-18T10:33:26.613Z,13.77
2022-11-18T10:36:10.831Z,13.87
2022-11-18T10:38:39.587Z,13.07
2022-11-18T10:41:13.039Z,17.77
2022-11-18T10:43:46.503Z,17.00
2022-11-18T10:46:21.303Z,12.73
2022-11-18T10:49:08.505Z,16.97
2022-11-18T10:51:38.053Z,16.97
2022-11-18T10:54:10.103Z,13.77
2022-11-18T10:56:48.839Z,13.53
2022-11-18T10:59:27.975Z,14.20
2022-11-18T11:02:06.878Z,13.53
2022-11-18T11:04:40.318Z,14.00
2022-11-18T11:07:17.841Z,13.50
2022-11-18T11:09:46.780Z,14.60
2022-11-18T11:12:18.324Z,14.83
2022-11-18T11:14:53.507Z,14.57
2022-11-18T11:17:29.595Z,36.17
2022-11-18T11:20:07.201Z,51.60
2022-11-18T11:22:35.695Z,25.83
2022-11-18T11:25:04.512Z,20.93
2022-11-18T11:30:49.843Z,17.50
2022-11-18T11:33:28.260Z,18.30
2022-11-18T11:36:18.299Z,17.20
2022-11-18T11:39:04.819Z,16.40
2022-11-18T11:41:50.557Z,16.37
2022-11-18T11:44:43.582Z,16.17
2022-11-18T11:47:44.660Z,16.07
2022-11-18T11:50:18.591Z,16.07
2022-11-18T11:53:03.444Z,16.67
2022-11-18T11:55:37.892Z,15.10
2022-11-18T11:58:20.931Z,16.23
2022-11-18T12:00:59.834Z,17.43
2022-11-18T12:03:51.637Z,18.07
2022-11-18T12:06:21.031Z,17.70
2022-11-18T12:09:07.046Z,16.60
2022-11-18T12:11:43.807Z,16.20
2022-11-18T12:14:29.407Z,18.20
2022-11-18T12:17:07.299Z,17.80
2022-11-18T12:19:39.759Z,19.07
2022-11-18T12:22:08.289Z,17.20
2022-11-18T12:24:40.265Z,18.77
2022-11-18T12:27:14.677Z,15.50
2022-11-18T12:29:56.933Z,16.70
2022-11-18T12:32:31.732Z,16.90
2022-11-18T12:35:07.125Z,16.27
2022-11-18T12:37:59.203Z,16.73
2022-11-18T12:40:52.201Z,15.27
2022-11-18T12:44:06.140Z,14.97
2022-11-18T12:46:52.491Z,14.10
2022-11-18T12:50:09.450Z,15.60
2022-11-18T12:52:48.856Z,16.00
2022-11-18T12:55:22.266Z,14.53
2022-11-18T12:57:52.612Z,14.27
2022-11-18T13:00:52.661Z,12.93
2022-11-18T13:03:30.767Z,13.90
2022-11-18T13:06:06.383Z,13.03
2022-11-18T13:08:35.845Z,13.03
2022-11-18T13:11:29.546Z,12.23
2022-11-18T13:14:16.815Z,11.43
2022-11-18T13:17:02.896Z,11.50
2022-11-18T13:19:31.505Z,10.67
2022-11-18T13:22:19.032Z,11.30
2022-11-18T13:24:48.622Z,11.53
2022-11-18T13:27:27.938Z,10.73
2022-11-18T13:30:05.856Z,10.37
2022-11-18T13:32:34.402Z,9.57
2022-11-18T13:35:13.248Z,9.47
2022-11-18T13:37:52.604Z,7.87
2022-11-18T13:40:23.844Z,8.30
2022-11-18T13:42:52.839Z,7.57
2022-11-18T13:45:26.005Z,7.60
2022-11-18T13:47:59.742Z,6.43
2022-11-18T13:50:34.719Z,6.87
2022-11-18T13:53:11.249Z,6.77
2022-11-18T13:55:45.708Z,6.13
2022-11-18T13:58:55.563Z,6.27
2022-11-18T14:01:28.496Z,8.10
2022-11-18T14:04:00.117Z,10.37
2022-11-18T14:06:30.218Z,11.07
2022-11-18T14:09:19.435Z,9.53
2022-11-18T14:11:59.482Z,8.40
2022-11-18T14:14:33.628Z,9.50
2022-11-18T14:17:18.173Z,12.17
2022-11-18T14:19:48.056Z,19.47
2022-11-18T14:22:19.225Z,9.57
2022-11-18T14:24:56.637Z,8.87
2022-11-18T14:27:48.531Z,7.53
2022-11-18T14:30:35.745Z,5.40
2022-11-18T14:33:20.947Z,4.87
2022-11-18T14:35:56.206Z,4.63
2022-11-18T14:38:38.872Z,5.00
2022-11-18T14:41:15.079Z,6.87
2022-11-18T14:43:46.269Z,4.53
2022-11-18T14:46:18.122Z,4.73
2022-11-18T14:48:48.161Z,4.87
2022-11-18T14:51:18.205Z,5.47
2022-11-18T14:53:46.671Z,6.33
2022-11-18T14:56:20.915Z,7.40
2022-11-18T14:58:49.355Z,8.27
2022-11-18T15:01:17.812Z,6.87
2022-11-18T15:03:47.741Z,7.27
2022-11-18T15:06:16.885Z,8.43
2022-11-18T15:08:46.673Z,10.03
2022-11-18T15:11:15.405Z,8.23
2022-11-18T15:13:44.104Z,7.30
2022-11-18T15:16:15.170Z,7.57
2022-11-18T15:18:44.063Z,6.97
2022-11-18T15:21:14.083Z,8.40
2022-11-18T15:23:42.951Z,11.87
2022-11-18T15:26:19.661Z,10.87
2022-11-18T15:28:48.471Z,9.43
2022-11-18T15:31:17.483Z,8.43
2022-11-18T15:33:46.973Z,7.93
2022-11-18T15:36:18.744Z,10.47
2022-11-18T15:38:48.005Z,17.97
2022-11-18T15:41:18.861Z,22.03
2022-11-18T15:43:48.030Z,21.70
2022-11-18T15:46:17.313Z,37.53
2022-11-18T15:48:45.814Z,49.93
2022-11-18T15:51:14.585Z,52.40
2022-11-18T15:53:44.491Z,57.20
2022-11-18T15:56:17.444Z,72.60
2022-11-18T15:58:46.492Z,73.07
2022-11-18T16:01:14.883Z,65.57
2022-11-18T16:03:43.277Z,56.93
2022-11-18T16:06:11.884Z,53.23
2022-11-18T16:08:40.801Z,63.10
2022-11-18T16:11:30.396Z,53.97
2022-11-18T16:14:02.560Z,35.70
2022-11-18T16:16:31.570Z,42.77
2022-11-18T16:19:01.696Z,56.90
2022-11-18T16:21:34.581Z,71.87
2022-11-18T16:24:04.808Z,76.57
2022-11-18T16:26:35.517Z,70.13
2022-11-18T16:29:04.500Z,53.97
2022-11-18T16:31:40.931Z,40.83
2022-11-18T16:34:09.862Z,38.47
2022-11-18T16:36:38.832Z,40.97
2022-11-18T16:39:09.025Z,36.47
2022-11-18T16:41:39.453Z,35.10
2022-11-18T16:44:09.740Z,34.73
2022-11-18T16:46:40.780Z,50.30
2022-11-18T16:49:12.844Z,68.10
2022-11-18T16:51:42.817Z,36.57
2022-11-18T16:54:18.581Z,28.50
2022-11-18T16:56:49.225Z,31.03
2022-11-18T16:59:19.780Z,28.27
2022-11-18T17:01:48.378Z,25.80
2022-11-18T17:04:17.014Z,37.33
2022-11-18T17:06:46.427Z,35.67
2022-11-18T17:09:16.523Z,30.83
2022-11-18T17:11:45.141Z,33.70
2022-11-18T17:14:15.440Z,37.27
2022-11-18T17:16:44.147Z,42.87
2022-11-18T17:19:15.604Z,38.23
2022-11-18T17:21:45.172Z,34.13
2022-11-18T17:24:15.720Z,30.47
2022-11-18T17:26:44.780Z,29.23
2022-11-18T17:29:15.800Z,39.93
2022-11-18T17:31:44.518Z,31.63
2022-11-18T17:34:14.445Z,27.03
2022-11-18T17:36:43.444Z,22.53
2022-11-18T17:39:13.533Z,20.43
2022-11-18T17:41:59.796Z,19.50
2022-11-18T17:44:30.122Z,17.60
2022-11-18T17:46:58.565Z,18.07
2022-11-18T17:49:26.918Z,18.67
2022-11-18T17:51:55.487Z,16.27
2022-11-18T17:54:24.133Z,15.97
2022-11-18T17:56:53.218Z,15.77
2022-11-18T17:59:21.766Z,16.57
2022-11-18T18:01:55.864Z,16.73
2022-11-18T18:04:27.570Z,17.97
2022-11-18T18:06:57.090Z,19.03
2022-11-18T18:09:30.439Z,15.00
2022-11-18T18:12:00.579Z,11.83
2022-11-18T18:14:28.108Z,11.57
2022-11-18T18:16:57.938Z,13.47
2022-11-18T18:19:26.446Z,11.53
2022-11-18T18:21:54.972Z,11.33
2022-11-18T18:24:25.048Z,13.47
2022-11-18T18:26:53.368Z,13.13
2022-11-18T18:29:21.759Z,12.13
2022-11-18T18:31:50.108Z,10.83
2022-11-18T18:34:20.147Z,11.20
2022-11-18T18:36:48.942Z,11.30
2022-11-18T18:39:17.399Z,12.63
2022-11-18T18:41:45.871Z,11.13
2022-11-18T18:44:18.668Z,11.27
2022-11-18T18:46:46.439Z,12.37
2022-11-18T18:49:20.562Z,12.67
2022-11-18T18:51:50.663Z,12.80
2022-11-18T18:54:20.968Z,11.67
2022-11-18T18:56:49.615Z,11.23
2022-11-18T18:59:18.085Z,11.83
2022-11-18T19:01:46.580Z,11.93
2022-11-18T19:04:16.020Z,11.67
2022-11-18T19:06:58.435Z,12.70
2022-11-18T19:09:29.487Z,11.73
2022-11-18T19:12:15.719Z,12.80
2022-11-18T19:14:44.249Z,13.00
2022-11-18T19:17:13.250Z,13.77
2022-11-18T19:20:00.386Z,15.33
2022-11-18T19:22:31.601Z,15.03
2022-11-18T19:25:02.123Z,18.60
2022-11-18T19:27:30.841Z,20.07
2022-11-18T19:29:59.368Z,23.20
2022-11-18T19:32:27.744Z,23.50
2022-11-18T19:34:56.167Z,25.60
2022-11-18T19:37:24.549Z,26.10
2022-11-18T19:39:52.983Z,28.30
2022-11-18T19:42:24.179Z,28.17
2022-11-18T19:44:52.627Z,28.40
2022-11-18T19:47:21.098Z,29.43
2022-11-18T19:49:49.837Z,29.63
2022-11-18T19:52:18.234Z,27.53
2022-11-18T19:54:46.593Z,25.97
2022-11-18T19:57:15.060Z,27.03
2022-11-18T19:59:46.381Z,28.87
2022-11-18T20:02:14.943Z,28.83
2022-11-18T20:05:03.794Z,27.50
2022-11-18T20:07:32.519Z,27.73
2022-11-18T20:10:00.988Z,26.70
2022-11-18T20:12:30.257Z,25.10
2022-11-18T20:15:00.124Z,23.07
2022-11-18T20:17:28.496Z,22.30
2022-11-18T20:19:56.830Z,19.60
2022-11-18T20:22:25.204Z,22.20
2022-11-18T20:24:54.384Z,26.87
2022-11-18T20:27:22.884Z,30.93
2022-11-18T20:29:51.298Z,25.57
2022-11-18T20:32:21.118Z,26.20
2022-11-18T20:34:49.554Z,23.73
2022-11-18T20:37:19.085Z,23.20
2022-11-18T20:39:47.768Z,20.37
2022-11-18T20:42:33.331Z,26.20
2022-11-18T20:45:01.768Z,23.90
2022-11-18T20:47:31.649Z,23.43
2022-11-18T20:50:00.039Z,21.10
2022-11-18T20:52:28.468Z,19.03
2022-11-18T20:54:59.174Z,17.60
2022-11-18T20:57:31.150Z,16.40
2022-11-18T20:59:59.588Z,16.10
2022-11-18T21:02:28.148Z,21.13
2022-11-18T21:04:57.972Z,16.67
2022-11-18T21:07:26.680Z,13.00
2022-11-18T21:09:55.805Z,12.13
2022-11-18T21:12:24.166Z,16.50
2022-11-18T21:14:51.626Z,20.97
2022-11-18T21:17:20.131Z,33.13
2022-11-18T21:19:48.717Z,41.97
2022-11-18T21:22:17.786Z,47.20
2022-11-18T21:24:46.179Z,30.33
2022-11-18T21:27:15.848Z,29.93
2022-11-18T21:29:46.621Z,32.03
2022-11-18T21:32:15.131Z,26.10
2022-11-18T21:34:43.781Z,18.30
2022-11-18T21:37:12.689Z,21.03
2022-11-18T21:39:42.705Z,23.03
2022-11-18T21:42:11.351Z,16.33
2022-11-18T21:44:40.552Z,13.07
2022-11-18T21:47:09.052Z,17.70
2022-11-18T21:49:37.492Z,16.80
2022-11-18T21:52:06.381Z,13.10
2022-11-18T21:54:36.925Z,11.90
2022-11-18T21:57:06.738Z,11.40
2022-11-18T21:59:35.205Z,10.97
2022-11-18T22:02:03.582Z,10.10
2022-11-18T22:04:49.442Z,9.73
2022-11-18T22:07:17.823Z,8.77
2022-11-18T22:09:46.250Z,9.83
2022-11-18T22:12:16.109Z,10.73
2022-11-18T22:14:44.573Z,12.20
2022-11-18T22:17:12.956Z,9.93
2022-11-18T22:19:41.354Z,10.33
2022-11-18T22:22:09.747Z,8.50
2022-11-18T22:24:38.174Z,8.27
2022-11-18T22:27:11.189Z,8.30
2022-11-18T22:29:41.324Z,8.17
2022-11-18T22:32:09.826Z,9.40
2022-11-18T22:34:38.246Z,7.97
2022-11-18T22:37:06.787Z,7.80
2022-11-18T22:39:35.167Z,8.27
2022-11-18T22:42:21.217Z,21.03
2022-11-18T22:44:51.079Z,18.83
2022-11-18T22:47:19.655Z,14.23
2022-11-18T22:49:50.964Z,18.97
2022-11-18T22:52:21.977Z,12.83
2022-11-18T22:54:50.438Z,11.70
2022-11-18T22:57:18.869Z,12.10
2022-11-18T22:59:47.211Z,12.13
2022-11-18T23:02:17.047Z,16.87
2022-11-18T23:04:45.473Z,13.80
2022-11-18T23:07:14.451Z,14.00
2022-11-18T23:09:42.894Z,12.87
2022-11-18T23:12:28.670Z,12.13
2022-11-18T23:14:57.090Z,10.27
2022-11-18T23:17:26.920Z,9.67
2022-11-18T23:19:55.356Z,8.83
2022-11-18T23:22:23.720Z,11.43
2022-11-18T23:24:52.207Z,11.97
2022-11-18T23:27:20.812Z,12.93
2022-11-18T23:29:49.708Z,11.30
2022-11-18T23:32:18.293Z,11.30
2022-11-18T23:34:49.268Z,12.73
2022-11-18T23:37:17.700Z,11.93
2022-11-18T23:39:46.699Z,15.57
2022-11-18T23:42:15.609Z,21.93
2022-11-18T23:44:46.778Z,17.47
2022-11-18T23:47:15.700Z,15.67
2022-11-18T23:49:44.110Z,14.60
2022-11-18T23:52:16.397Z,17.97
2022-11-18T23:54:44.827Z,16.20
2022-11-18T23:57:13.246Z,14.10
2022-11-18T23:59:41.659Z,14.50
